Time;durP1;ratioP1;P1;durP2;ratioP2;P2;SDS_P1;SDS_P2;PMS_P1;PMS_P2;Temp;Humidity;BMP_temperature;BMP_pressure;BME280_temperature;BME280_humidity;BME280_pressure;Samples;Min_cycle;Max_cycle;Signal;HPM_P1;HPM_P2
2023/12/28 00:01:40;;;;;;;17.02;3.58;;;12.00;72.80;;;;;;5054492;28;20037;-83
2023/12/28 00:04:06;;;;;;;12.13;3.03;;;12.00;72.80;;;;;;5038502;28;20465;-84
2023/12/28 00:06:32;;;;;;;13.95;3.78;;;12.10;72.90;;;;;;5033020;28;20044;-85
2023/12/28 00:09:00;;;;;;;11.50;3.38;;;12.10;72.80;;;;;;5040407;28;20036;-86
2023/12/28 00:11:26;;;;;;;15.15;3.47;;;12.10;72.80;;;;;;5037862;28;20455;-85
2023/12/28 00:13:52;;;;;;;12.82;3.22;;;12.00;73.10;;;;;;5018886;28;20439;-85
2023/12/28 00:16:18;;;;;;;16.60;3.72;;;12.10;72.70;;;;;;5030338;28;20037;-85
2023/12/28 00:18:45;;;;;;;11.30;2.95;;;12.10;72.70;;;;;;5031595;28;20025;-84
2023/12/28 00:21:11;;;;;;;14.05;2.83;;;12.10;72.70;;;;;;5053872;28;20128;-83
2023/12/28 00:23:37;;;;;;;16.38;3.83;;;12.10;72.60;;;;;;5047458;28;20036;-86
2023/12/28 00:26:03;;;;;;;11.38;3.75;;;12.10;72.60;;;;;;5036186;28;20067;-86
2023/12/28 00:28:29;;;;;;;13.43;3.67;;;12.10;72.60;;;;;;5033893;28;20337;-86
2023/12/28 00:30:56;;;;;;;12.27;3.63;;;12.10;72.60;;;;;;5033336;28;20045;-85
2023/12/28 00:33:22;;;;;;;13.73;3.67;;;12.10;72.60;;;;;;5039364;28;20115;-87
2023/12/28 00:35:49;;;;;;;17.42;3.40;;;12.20;72.70;;;;;;5040024;28;20051;-86
2023/12/28 00:38:15;;;;;;;15.82;4.22;;;12.10;72.50;;;;;;5035815;28;20657;-86
2023/12/28 00:40:41;;;;;;;15.70;3.88;;;12.20;72.80;;;;;;5034620;28;20033;-85
2023/12/28 00:43:07;;;;;;;16.50;3.58;;;12.20;72.70;;;;;;5054470;28;20029;-86
2023/12/28 00:45:33;;;;;;;15.90;4.20;;;12.20;72.70;;;;;;5030760;28;20075;-86
2023/12/28 00:47:59;;;;;;;17.35;4.70;;;12.20;72.70;;;;;;5048449;28;20075;-87
2023/12/28 00:50:27;;;;;;;15.88;4.15;;;12.20;72.60;;;;;;5041252;28;20428;-88
2023/12/28 00:52:53;;;;;;;16.40;4.43;;;12.20;72.60;;;;;;5038300;28;20062;-87
2023/12/28 00:55:19;;;;;;;21.25;4.85;;;12.20;72.60;;;;;;5045071;28;20140;-87
2023/12/28 00:57:45;;;;;;;15.80;5.00;;;12.20;72.60;;;;;;5040258;28;20472;-87
2023/12/28 01:00:11;;;;;;;14.10;4.10;;;12.20;72.50;;;;;;5025409;28;20471;-84
2023/12/28 01:02:37;;;;;;;21.52;6.40;;;12.20;72.50;;;;;;5048650;28;20035;-85
2023/12/28 01:05:04;;;;;;;18.27;4.68;;;12.20;72.50;;;;;;5033500;28;20040;-85
2023/12/28 01:07:30;;;;;;;14.45;4.00;;;12.20;72.50;;;;;;5052662;28;20041;-85
2023/12/28 01:09:56;;;;;;;25.33;3.80;;;12.20;72.50;;;;;;5053586;28;20025;-84
2023/12/28 01:12:24;;;;;;;17.60;4.80;;;12.20;72.40;;;;;;5035611;28;20154;-85
2023/12/28 01:14:51;;;;;;;22.50;4.90;;;12.20;72.40;;;;;;5038158;28;20461;-86
2023/12/28 01:17:23;;;;;;;19.15;5.28;;;12.20;72.40;;;;;;5045749;28;20676;-86
2023/12/28 01:19:49;;;;;;;26.08;6.05;;;12.20;72.50;;;;;;5041060;28;20024;-84
2023/12/28 01:22:15;;;;;;;22.75;5.47;;;12.20;72.50;;;;;;5039460;28;20029;-86
2023/12/28 01:24:46;;;;;;;21.60;5.50;;;12.30;72.60;;;;;;5025807;28;20251;-84
2023/12/28 01:27:13;;;;;;;21.73;4.72;;;12.20;72.50;;;;;;5037122;28;20028;-88
2023/12/28 01:29:39;;;;;;;25.33;5.35;;;12.20;72.50;;;;;;5017064;28;20036;-85
2023/12/28 01:32:05;;;;;;;18.15;4.93;;;12.20;72.50;;;;;;5034619;28;20076;-86
2023/12/28 01:34:31;;;;;;;26.02;5.75;;;12.30;72.80;;;;;;5028630;28;20204;-86
2023/12/28 01:36:57;;;;;;;17.77;4.75;;;12.20;72.70;;;;;;5052772;28;20051;-86
2023/12/28 01:39:23;;;;;;;20.77;4.82;;;12.20;72.80;;;;;;5033961;28;20384;-87
2023/12/28 01:41:49;;;;;;;23.77;5.53;;;12.20;72.80;;;;;;5039328;28;20029;-86
2023/12/28 01:44:15;;;;;;;19.75;4.28;;;12.20;72.80;;;;;;5037308;28;20347;-87
2023/12/28 01:46:42;;;;;;;18.60;5.85;;;12.20;72.90;;;;;;5038560;28;20045;-87
2023/12/28 01:49:08;;;;;;;27.00;5.97;;;12.10;72.80;;;;;;5026887;28;20195;-88
2023/12/28 01:51:35;;;;;;;21.48;5.85;;;12.10;72.90;;;;;;5041066;28;20506;-87
2023/12/28 01:54:02;;;;;;;23.38;5.28;;;12.10;72.90;;;;;;5023325;28;20053;-87
2023/12/28 01:56:28;;;;;;;19.60;5.50;;;12.10;73.00;;;;;;5039340;28;20390;-88
2023/12/28 01:58:54;;;;;;;19.17;5.32;;;12.10;73.50;;;;;;5025336;28;20029;-87
2023/12/28 02:01:22;;;;;;;20.10;4.65;;;12.10;73.10;;;;;;5042637;28;20043;-87
2023/12/28 02:03:49;;;;;;;18.13;4.95;;;12.10;73.20;;;;;;5030711;28;20100;-88
2023/12/28 02:06:16;;;;;;;20.92;4.95;;;12.10;73.20;;;;;;5025947;28;20116;-89
2023/12/28 02:08:42;;;;;;;19.30;4.93;;;12.10;73.30;;;;;;5046943;28;20099;-87
2023/12/28 02:11:08;;;;;;;16.10;3.88;;;12.10;73.30;;;;;;5029327;28;20025;-87
2023/12/28 02:13:35;;;;;;;21.70;5.85;;;12.00;73.20;;;;;;5064705;28;20632;-86
2023/12/28 02:16:25;;;;;;;24.20;5.10;;;12.10;73.40;;;;;;5060068;28;20048;-86
2023/12/28 02:18:56;;;;;;;16.95;5.00;;;12.00;73.30;;;;;;5065312;28;20033;-87
2023/12/28 02:21:22;;;;;;;20.70;5.00;;;12.00;73.30;;;;;;5063548;28;20024;-85
2023/12/28 02:23:49;;;;;;;20.00;5.80;;;12.00;73.40;;;;;;5030453;28;20129;-87
2023/12/28 02:26:19;;;;;;;17.70;4.47;;;12.00;73.50;;;;;;5026538;28;20433;-84
2023/12/28 02:28:47;;;;;;;16.05;4.88;;;12.10;73.70;;;;;;5035878;28;20044;-84
2023/12/28 02:31:32;;;;;;;19.70;5.15;;;12.00;73.50;;;;;;5038450;28;20552;-84
2023/12/28 02:34:07;;;;;;;18.38;4.95;;;12.00;73.70;;;;;;5046317;28;20034;-85
2023/12/28 02:36:36;;;;;;;21.52;4.85;;;12.00;73.70;;;;;;5056285;28;20043;-83
2023/12/28 02:39:06;;;;;;;17.65;4.47;;;12.00;73.70;;;;;;5039767;28;20025;-86
2023/12/28 02:41:33;;;;;;;16.63;4.57;;;12.00;73.80;;;;;;5046212;28;20032;-85
2023/12/28 02:44:07;;;;;;;19.58;4.65;;;12.00;73.80;;;;;;5022238;28;20179;-87
2023/12/28 02:46:33;;;;;;;17.65;4.32;;;12.00;73.90;;;;;;5048907;28;20128;-87
2023/12/28 02:48:59;;;;;;;13.63;3.90;;;11.90;73.80;;;;;;5040181;28;20060;-86
2023/12/28 02:51:25;;;;;;;17.05;4.07;;;11.90;73.80;;;;;;5044590;28;20056;-87
2023/12/28 02:53:52;;;;;;;17.88;4.97;;;11.90;73.90;;;;;;5057589;28;20029;-85
2023/12/28 02:56:18;;;;;;;14.63;3.90;;;11.90;73.90;;;;;;5045170;28;20036;-87
2023/12/28 02:58:45;;;;;;;15.48;4.40;;;11.90;74.00;;;;;;5054653;28;20420;-87
2023/12/28 03:01:12;;;;;;;13.25;4.13;;;11.90;74.10;;;;;;5042168;28;20028;-86
2023/12/28 03:03:40;;;;;;;16.95;3.88;;;11.90;74.10;;;;;;5040414;28;20027;-86
2023/12/28 03:06:06;;;;;;;16.73;3.33;;;11.90;74.20;;;;;;5038087;28;20037;-86
2023/12/28 03:08:32;;;;;;;16.65;4.10;;;11.90;74.20;;;;;;5042162;28;20032;-87
2023/12/28 03:10:59;;;;;;;15.02;4.72;;;11.90;74.30;;;;;;5037626;28;20036;-86
2023/12/28 03:13:25;;;;;;;16.45;4.35;;;11.90;74.30;;;;;;5047868;28;20296;-87
2023/12/28 03:15:51;;;;;;;14.18;4.60;;;11.90;74.30;;;;;;5040580;28;20387;-85
2023/12/28 03:18:17;;;;;;;19.98;4.53;;;11.90;74.40;;;;;;5037973;28;20117;-86
2023/12/28 03:20:42;;;;;;;16.05;4.63;;;11.90;74.40;;;;;;5047844;28;20203;-85
2023/12/28 03:23:11;;;;;;;18.58;4.88;;;11.90;74.40;;;;;;5056722;28;20437;-85
2023/12/28 03:25:37;;;;;;;25.52;4.43;;;11.90;74.50;;;;;;5045145;28;20490;-84
2023/12/28 03:28:03;;;;;;;15.52;4.35;;;11.90;74.50;;;;;;5039006;28;20040;-86
2023/12/28 03:30:29;;;;;;;17.90;4.63;;;11.90;74.50;;;;;;5039994;28;20033;-85
2023/12/28 03:32:55;;;;;;;23.48;5.85;;;11.90;74.60;;;;;;5039085;28;20025;-84
2023/12/28 03:35:21;;;;;;;21.52;4.55;;;11.90;74.60;;;;;;5057156;28;20538;-84
2023/12/28 03:37:47;;;;;;;18.38;4.35;;;11.90;74.60;;;;;;5040071;28;20036;-85
2023/12/28 03:40:13;;;;;;;19.88;4.88;;;11.90;74.60;;;;;;5048127;28;20561;-83
2023/12/28 03:42:39;;;;;;;19.90;4.30;;;11.90;74.60;;;;;;5031623;28;20480;-87
2023/12/28 03:45:06;;;;;;;19.98;4.60;;;11.90;74.60;;;;;;5052669;28;20035;-87
2023/12/28 03:47:32;;;;;;;18.42;4.78;;;11.90;74.60;;;;;;5023935;28;20041;-86
2023/12/28 03:49:58;;;;;;;24.02;6.22;;;11.90;74.70;;;;;;5050313;28;20036;-86
2023/12/28 03:52:31;;;;;;;21.23;5.20;;;11.90;74.70;;;;;;5041077;28;20124;-87
2023/12/28 03:54:58;;;;;;;20.23;5.72;;;11.90;74.70;;;;;;5056902;28;20044;-84
2023/12/28 03:57:25;;;;;;;21.60;4.70;;;11.90;74.70;;;;;;5036769;28;20021;-85
2023/12/28 03:59:51;;;;;;;19.17;4.60;;;11.80;74.60;;;;;;5031910;28;20191;-84
2023/12/28 04:02:18;;;;;;;24.33;5.18;;;11.80;74.60;;;;;;5039150;28;20514;-86
2023/12/28 04:04:44;;;;;;;26.63;5.68;;;11.80;74.60;;;;;;5027246;28;20556;-84
2023/12/28 04:07:10;;;;;;;21.02;5.22;;;11.80;74.60;;;;;;5053734;28;20025;-85
2023/12/28 04:09:37;;;;;;;19.92;4.50;;;11.90;74.80;;;;;;5044747;28;20036;-85
2023/12/28 04:12:03;;;;;;;16.77;4.70;;;11.80;75.10;;;;;;5036365;28;20036;-85
2023/12/28 04:14:29;;;;;;;24.42;5.47;;;11.80;74.60;;;;;;5039708;28;20028;-86
2023/12/28 04:16:55;;;;;;;24.40;6.50;;;11.80;74.60;;;;;;5024207;28;20032;-86
2023/12/28 04:19:21;;;;;;;22.33;6.00;;;11.80;74.60;;;;;;5040019;28;20025;-85
2023/12/28 04:21:47;;;;;;;19.85;4.57;;;11.90;74.80;;;;;;5039903;28;20041;-87
2023/12/28 04:24:13;;;;;;;20.33;4.78;;;11.80;74.60;;;;;;5044982;28;20393;-85
2023/12/28 04:26:39;;;;;;;24.05;5.00;;;11.80;74.60;;;;;;5043063;28;20139;-86
2023/12/28 04:29:05;;;;;;;21.95;5.50;;;11.80;74.60;;;;;;5056202;28;20124;-86
2023/12/28 04:31:31;;;;;;;26.63;4.93;;;11.80;74.60;;;;;;5030219;28;20098;-85
2023/12/28 04:33:58;;;;;;;21.58;4.40;;;11.90;74.80;;;;;;5046430;28;20343;-86
2023/12/28 04:36:24;;;;;;;22.38;4.75;;;11.90;74.80;;;;;;5031044;28;20202;-85
2023/12/28 04:38:50;;;;;;;18.55;5.15;;;11.90;74.70;;;;;;5041918;28;20194;-87
2023/12/28 04:41:17;;;;;;;15.00;5.10;;;11.90;74.70;;;;;;5043129;28;20094;-86
2023/12/28 04:43:43;;;;;;;22.77;5.15;;;11.90;74.70;;;;;;5039289;28;20028;-87
2023/12/28 04:46:09;;;;;;;23.80;6.40;;;11.80;74.50;;;;;;5029116;28;20082;-86
2023/12/28 04:48:35;;;;;;;23.73;5.18;;;11.90;74.60;;;;;;5031366;28;20049;-84
2023/12/28 04:51:04;;;;;;;21.85;5.95;;;11.90;74.60;;;;;;5037771;28;20443;-85
2023/12/28 04:53:30;;;;;;;15.30;3.60;;;11.90;74.60;;;;;;5037551;28;20028;-86
2023/12/28 04:55:56;;;;;;;27.58;5.97;;;11.90;74.60;;;;;;5038952;28;20039;-86
2023/12/28 04:58:22;;;;;;;20.42;4.85;;;11.90;74.60;;;;;;5039115;28;20044;-87
2023/12/28 05:00:48;;;;;;;19.98;5.30;;;11.90;74.60;;;;;;5039291;28;20226;-86
2023/12/28 05:03:14;;;;;;;15.23;4.28;;;11.90;75.10;;;;;;5042901;28;20021;-87
2023/12/28 05:05:41;;;;;;;18.27;4.07;;;11.90;74.60;;;;;;5052355;28;20021;-86
2023/12/28 05:08:08;;;;;;;27.25;4.30;;;11.90;74.60;;;;;;5057833;28;20037;-86
2023/12/28 05:10:34;;;;;;;19.52;4.50;;;11.90;74.60;;;;;;5035967;28;20101;-85
2023/12/28 05:13:00;;;;;;;20.83;4.95;;;11.90;74.60;;;;;;5039641;28;20116;-85
2023/12/28 05:15:26;;;;;;;18.17;4.57;;;11.90;74.60;;;;;;5039113;28;20033;-86
2023/12/28 05:17:52;;;;;;;17.58;4.47;;;11.90;74.60;;;;;;5042960;28;20028;-86
2023/12/28 05:20:19;;;;;;;20.65;5.30;;;11.90;74.60;;;;;;5045004;28;20033;-86
2023/12/28 05:22:45;;;;;;;20.65;5.32;;;11.90;74.60;;;;;;5024140;28;20078;-83
2023/12/28 05:25:12;;;;;;;20.27;4.25;;;11.90;74.60;;;;;;5033217;28;20468;-84
2023/12/28 05:27:38;;;;;;;23.75;5.20;;;11.90;74.60;;;;;;5036795;28;20515;-85
2023/12/28 05:30:06;;;;;;;20.85;4.38;;;11.90;74.60;;;;;;5034662;28;20475;-85
2023/12/28 05:32:31;;;;;;;20.38;5.15;;;11.90;74.60;;;;;;5043470;28;20016;-88
2023/12/28 05:34:58;;;;;;;20.85;5.25;;;11.90;74.60;;;;;;5039963;28;20051;-86
2023/12/28 05:37:24;;;;;;;21.60;5.22;;;11.90;74.60;;;;;;5040169;28;20033;-86
2023/12/28 05:39:51;;;;;;;25.00;4.95;;;11.80;74.50;;;;;;5037584;28;20283;-87
2023/12/28 05:42:17;;;;;;;21.45;4.30;;;11.90;74.60;;;;;;5046710;28;20072;-84
2023/12/28 05:44:44;;;;;;;20.13;5.03;;;11.80;74.50;;;;;;5052905;28;20627;-84
2023/12/28 05:47:10;;;;;;;23.77;6.20;;;11.80;74.50;;;;;;5035252;28;20448;-86
2023/12/28 05:49:37;;;;;;;18.55;4.93;;;11.80;74.50;;;;;;5043227;28;20033;-85
2023/12/28 05:52:04;;;;;;;18.23;4.18;;;11.80;74.50;;;;;;5052817;28;20148;-85
2023/12/28 05:54:30;;;;;;;13.20;4.22;;;11.80;74.60;;;;;;5029464;28;20083;-85
2023/12/28 05:56:56;;;;;;;22.60;4.72;;;11.80;74.60;;;;;;5031901;28;20041;-86
2023/12/28 05:59:22;;;;;;;21.45;5.03;;;11.80;74.60;;;;;;5033957;28;20430;-88
2023/12/28 06:01:48;;;;;;;21.13;5.15;;;11.70;74.40;;;;;;5025116;28;21017;-82
2023/12/28 06:04:15;;;;;;;22.27;5.20;;;11.80;74.60;;;;;;5047787;28;20033;-89
2023/12/28 06:06:41;;;;;;;16.48;4.47;;;11.80;74.60;;;;;;5048244;28;20063;-88
2023/12/28 06:09:07;;;;;;;14.30;3.58;;;11.70;74.40;;;;;;5042981;28;20024;-88
2023/12/28 06:11:33;;;;;;;21.50;4.97;;;11.70;74.40;;;;;;5052816;28;20057;-85
2023/12/28 06:13:59;;;;;;;14.40;4.20;;;11.80;74.60;;;;;;5034012;28;20034;-87
2023/12/28 06:16:26;;;;;;;12.93;3.67;;;11.70;74.40;;;;;;5027026;28;20056;-87
2023/12/28 06:18:52;;;;;;;17.08;4.32;;;11.70;74.40;;;;;;5056260;28;20052;-87
2023/12/28 06:21:18;;;;;;;17.20;3.20;;;11.70;74.40;;;;;;5043021;28;20564;-86
2023/12/28 06:23:44;;;;;;;18.13;4.28;;;11.80;74.50;;;;;;5035623;28;20556;-84
2023/12/28 06:26:10;;;;;;;15.85;4.32;;;11.70;74.30;;;;;;5040021;28;20060;-85
2023/12/28 06:28:36;;;;;;;16.15;3.78;;;11.70;74.30;;;;;;5020308;28;20427;-84
2023/12/28 06:31:04;;;;;;;16.60;4.00;;;11.80;74.50;;;;;;5036904;28;20427;-87
2023/12/28 06:33:30;;;;;;;16.70;4.20;;;11.70;74.30;;;;;;5037723;28;20021;-84
2023/12/28 06:35:58;;;;;;;14.52;4.03;;;11.70;74.30;;;;;;5037295;28;20503;-84
2023/12/28 06:38:25;;;;;;;18.38;5.65;;;11.70;74.40;;;;;;5032937;28;20179;-83
2023/12/28 06:40:52;;;;;;;15.43;3.85;;;11.70;74.40;;;;;;5038589;28;20125;-83
2023/12/28 06:43:21;;;;;;;17.98;4.78;;;11.70;74.40;;;;;;5036727;28;20348;-85
2023/12/28 06:45:47;;;;;;;19.08;4.40;;;11.70;74.30;;;;;;5037424;28;20037;-86
2023/12/28 06:48:13;;;;;;;15.68;3.63;;;11.70;74.40;;;;;;5036966;28;20045;-84
2023/12/28 06:50:39;;;;;;;18.77;6.18;;;11.70;74.40;;;;;;5043415;28;20122;-87
2023/12/28 06:53:06;;;;;;;17.02;4.40;;;11.70;74.40;;;;;;5035567;28;20037;-85
2023/12/28 06:55:32;;;;;;;17.70;4.25;;;11.60;74.20;;;;;;5027420;28;20044;-84
2023/12/28 06:57:58;;;;;;;21.65;4.78;;;11.70;74.40;;;;;;5040402;28;20105;-86
2023/12/28 07:00:25;;;;;;;20.25;4.20;;;11.70;74.40;;;;;;5035196;28;20497;-86
2023/12/28 07:02:51;;;;;;;17.85;3.95;;;11.70;74.40;;;;;;5037688;28;20495;-84
2023/12/28 07:05:17;;;;;;;18.30;3.88;;;11.70;74.40;;;;;;5013594;28;20041;-85
2023/12/28 07:07:44;;;;;;;21.83;4.10;;;11.70;74.40;;;;;;5051097;28;20025;-86
2023/12/28 07:10:10;;;;;;;20.02;4.95;;;11.70;74.40;;;;;;5050734;28;20106;-85
2023/12/28 07:12:36;;;;;;;17.13;4.32;;;11.60;74.20;;;;;;5036622;28;20267;-86
2023/12/28 07:15:03;;;;;;;30.42;7.15;;;11.70;74.40;;;;;;5033666;28;20139;-83
2023/12/28 07:17:29;;;;;;;17.13;4.10;;;11.70;74.40;;;;;;5057590;28;20036;-85
2023/12/28 07:19:55;;;;;;;18.48;4.85;;;11.60;74.20;;;;;;5042093;28;20041;-85
2023/12/28 07:22:21;;;;;;;19.60;5.72;;;11.60;74.70;;;;;;5039008;28;20071;-84
2023/12/28 07:24:47;;;;;;;21.05;5.53;;;11.60;74.10;;;;;;5054708;28;20782;-84
2023/12/28 07:27:13;;;;;;;31.10;5.00;;;11.60;74.10;;;;;;5025362;28;20038;-83
2023/12/28 07:29:40;;;;;;;19.13;5.47;;;11.60;74.10;;;;;;5038836;28;20100;-84
2023/12/28 07:32:08;;;;;;;22.48;5.57;;;11.60;74.10;;;;;;5037302;28;20068;-85
2023/12/28 07:34:34;;;;;;;16.70;4.38;;;11.60;74.10;;;;;;5056401;28;20037;-87
2023/12/28 07:37:00;;;;;;;20.15;4.88;;;11.60;74.10;;;;;;5044262;28;20392;-84
2023/12/28 07:39:26;;;;;;;20.58;4.75;;;11.60;74.10;;;;;;5035991;28;20172;-82
2023/12/28 07:41:52;;;;;;;20.35;4.28;;;11.60;74.10;;;;;;5050163;28;20124;-84
2023/12/28 07:44:18;;;;;;;22.67;5.25;;;11.60;74.10;;;;;;5057778;28;20113;-83
2023/12/28 07:46:45;;;;;;;25.30;5.18;;;11.60;74.00;;;;;;5055970;28;20033;-83
2023/12/28 07:49:11;;;;;;;17.35;4.78;;;11.60;74.00;;;;;;5045392;28;20135;-84
2023/12/28 07:51:37;;;;;;;22.02;6.68;;;11.60;73.90;;;;;;5055442;28;20185;-85
2023/12/28 07:54:04;;;;;;;18.35;4.43;;;11.60;73.90;;;;;;5057213;28;20059;-82
2023/12/28 07:56:30;;;;;;;21.25;4.57;;;11.60;73.90;;;;;;5048518;28;20037;-83
2023/12/28 07:58:56;;;;;;;25.48;5.57;;;11.60;73.80;;;;;;5033958;28;20501;-83
2023/12/28 08:01:22;;;;;;;20.48;5.35;;;11.60;73.90;;;;;;5039596;28;20142;-85
2023/12/28 08:03:51;;;;;;;20.38;6.03;;;11.60;73.70;;;;;;5024102;28;20458;-84
2023/12/28 08:06:17;;;;;;;25.00;5.50;;;11.60;73.70;;;;;;5045808;28;20406;-84
2023/12/28 08:08:46;;;;;;;22.63;4.63;;;11.60;73.70;;;;;;5037156;28;20441;-83
2023/12/28 08:11:12;;;;;;;18.88;4.75;;;11.60;73.60;;;;;;5048575;28;20464;-84
2023/12/28 08:13:39;;;;;;;18.20;4.72;;;11.60;73.60;;;;;;5028229;28;20509;-84
2023/12/28 08:16:06;;;;;;;21.13;4.90;;;11.60;73.50;;;;;;5035528;28;20506;-85
2023/12/28 08:18:31;;;;;;;17.45;4.28;;;11.70;73.70;;;;;;5021901;28;20380;-82
2023/12/28 08:20:58;;;;;;;18.45;4.50;;;11.60;73.40;;;;;;5050731;28;20527;-85
2023/12/28 08:23:24;;;;;;;22.10;5.28;;;11.60;73.40;;;;;;5032363;28;20056;-85
2023/12/28 08:25:51;;;;;;;24.30;5.72;;;11.60;73.30;;;;;;5052502;28;20036;-87
2023/12/28 08:28:17;;;;;;;15.98;4.28;;;11.70;73.50;;;;;;5053816;28;20044;-84
2023/12/28 08:30:43;;;;;;;21.65;6.50;;;11.60;73.30;;;;;;5043351;28;20031;-82
2023/12/28 08:33:09;;;;;;;22.80;4.82;;;11.60;73.20;;;;;;5036475;28;20080;-84
2023/12/28 08:35:37;;;;;;;18.77;4.32;;;11.70;73.40;;;;;;5037299;28;20452;-83
2023/12/28 08:38:05;;;;;;;18.88;4.85;;;11.60;73.20;;;;;;5039608;28;20580;-93
2023/12/28 08:40:32;;;;;;;16.98;4.55;;;11.60;73.20;;;;;;5029330;28;20099;-86
2023/12/28 08:42:58;;;;;;;17.73;4.07;;;11.70;73.30;;;;;;5050754;28;20032;-84
2023/12/28 08:45:24;;;;;;;14.40;4.18;;;11.70;73.30;;;;;;5047186;28;20047;-84
2023/12/28 08:47:50;;;;;;;15.15;4.00;;;11.70;73.20;;;;;;5041014;28;20072;-85
2023/12/28 08:50:16;;;;;;;18.95;4.82;;;11.70;73.20;;;;;;5035390;28;20297;-86
2023/12/28 08:52:42;;;;;;;17.17;4.50;;;11.70;73.10;;;;;;5035609;28;20509;-85
2023/12/28 08:55:08;;;;;;;14.27;4.15;;;11.70;73.00;;;;;;5039215;28;20048;-83
2023/12/28 08:57:34;;;;;;;18.88;3.47;;;11.70;73.00;;;;;;5030789;28;20041;-84
2023/12/28 09:00:02;;;;;;;20.60;4.78;;;11.70;73.00;;;;;;5034790;28;20370;-86
2023/12/28 09:02:31;;;;;;;14.32;3.70;;;11.70;73.00;;;;;;5060852;28;20389;-85
2023/12/28 09:04:58;;;;;;;17.85;4.38;;;11.80;73.20;;;;;;5055644;28;20567;-91
2023/12/28 09:07:24;;;;;;;17.23;4.75;;;11.80;73.20;;;;;;5048235;28;20029;-84
2023/12/28 09:09:52;;;;;;;14.77;5.22;;;11.80;73.10;;;;;;5055253;28;20350;-84
2023/12/28 09:12:19;;;;;;;21.50;4.82;;;11.80;73.10;;;;;;5050887;28;20436;-85
2023/12/28 09:14:45;;;;;;;20.42;4.38;;;11.80;73.10;;;;;;5034252;28;20756;-84
2023/12/28 09:17:14;;;;;;;13.20;4.13;;;11.90;73.20;;;;;;5030944;28;20089;-84
2023/12/28 09:19:41;;;;;;;14.32;3.47;;;11.90;73.20;;;;;;5035230;28;20037;-85
2023/12/28 09:22:07;;;;;;;19.73;3.90;;;11.90;73.40;;;;;;5050106;28;20041;-84
2023/12/28 09:24:32;;;;;;;18.23;5.80;;;11.90;73.20;;;;;;5030225;28;20802;-84
2023/12/28 09:26:58;;;;;;;18.50;4.35;;;11.90;73.20;;;;;;5029079;28;20414;-85
2023/12/28 09:29:24;;;;;;;17.25;3.88;;;11.90;73.20;;;;;;5045098;28;20561;-83
2023/12/28 09:31:51;;;;;;;20.30;4.60;;;11.90;73.30;;;;;;5033714;28;20032;-84
2023/12/28 09:34:17;;;;;;;17.63;3.95;;;11.90;73.30;;;;;;5025236;28;20041;-83
2023/12/28 09:36:43;;;;;;;20.85;5.05;;;11.90;73.30;;;;;;5038340;28;20435;-83
2023/12/28 09:39:09;;;;;;;18.00;4.25;;;11.90;73.30;;;;;;5039138;28;20367;-83
2023/12/28 09:41:39;;;;;;;17.30;5.38;;;12.00;73.40;;;;;;5041610;28;20079;-84
2023/12/28 09:44:12;;;;;;;14.73;4.82;;;12.00;73.40;;;;;;5036266;28;20098;-84
2023/12/28 09:46:41;;;;;;;;;;;12.10;73.50;;;;;;5051661;28;20362;-83
2023/12/28 09:49:07;;;;;;;20.27;4.68;;;12.10;73.50;;;;;;5042801;28;20025;-83
2023/12/28 09:51:33;;;;;;;18.00;3.83;;;12.10;73.90;;;;;;5036113;28;20091;-84
2023/12/28 09:53:59;;;;;;;22.27;5.50;;;12.10;73.30;;;;;;5025490;28;20033;-85
2023/12/28 09:56:26;;;;;;;15.77;4.25;;;12.20;73.50;;;;;;5012571;28;20051;-83
2023/12/28 09:58:53;;;;;;;19.83;3.90;;;12.20;73.50;;;;;;5041205;28;20526;-83
2023/12/28 10:01:19;;;;;;;15.52;4.32;;;12.20;73.40;;;;;;5030866;28;20033;-84
2023/12/28 10:03:45;;;;;;;16.50;3.90;;;12.20;73.40;;;;;;5060131;28;20260;-83
2023/12/28 10:06:15;;;;;;;14.93;3.65;;;12.20;73.40;;;;;;5034344;28;20655;-82
2023/12/28 10:08:48;;;;;;;18.95;4.07;;;12.20;73.40;;;;;;5058332;28;20298;-87
2023/12/28 10:11:19;;;;;;;17.98;4.22;;;12.20;73.40;;;;;;5034431;28;20033;-85
2023/12/28 10:13:45;;;;;;;13.05;4.13;;;12.20;73.40;;;;;;5020676;28;20039;-84
2023/12/28 10:16:12;;;;;;;15.05;4.38;;;12.30;73.50;;;;;;5036032;28;20048;-83
2023/12/28 10:18:42;;;;;;;16.00;4.25;;;12.30;73.70;;;;;;5034410;28;20112;-83
2023/12/28 10:21:08;;;;;;;13.57;3.42;;;12.30;73.50;;;;;;5034741;28;20041;-83
2023/12/28 10:23:34;;;;;;;13.82;3.10;;;12.30;73.40;;;;;;5052573;28;20530;-82
2023/12/28 10:26:01;;;;;;;13.85;3.40;;;12.30;73.40;;;;;;5032649;28;20030;-82
2023/12/28 10:28:34;;;;;;;18.00;3.75;;;12.30;73.30;;;;;;5035782;28;20017;-86
2023/12/28 10:31:01;;;;;;;13.75;3.95;;;12.40;73.40;;;;;;5050657;28;20161;-81
2023/12/28 10:33:33;;;;;;;15.48;3.28;;;12.40;73.30;;;;;;5040955;28;20441;-82
2023/12/28 10:36:00;;;;;;;14.55;3.60;;;12.40;73.30;;;;;;5039037;28;20049;-84
2023/12/28 10:38:34;;;;;;;16.10;4.13;;;12.50;73.30;;;;;;5052300;28;20100;-83
2023/12/28 10:41:00;;;;;;;15.27;3.83;;;12.60;73.40;;;;;;5032738;28;20222;-82
2023/12/28 10:43:27;;;;;;;16.42;5.20;;;12.60;73.30;;;;;;5042622;28;20029;-80
2023/12/28 10:45:55;;;;;;;13.63;4.38;;;12.70;73.40;;;;;;5074633;28;20071;-82
2023/12/28 10:48:50;;;;;;;16.33;3.45;;;12.80;73.40;;;;;;5049281;28;20059;-81
2023/12/28 10:51:24;;;;;;;16.27;4.10;;;12.80;73.40;;;;;;5055951;28;20068;-82
2023/12/28 10:54:19;;;;;;;16.73;4.38;;;12.90;73.40;;;;;;5049382;28;20054;-83
2023/12/28 10:56:49;;;;;;;15.30;3.38;;;12.90;73.30;;;;;;5031259;28;20091;-81
2023/12/28 10:59:22;;;;;;;13.57;3.88;;;13.00;73.30;;;;;;5060629;28;20371;-82
2023/12/28 11:01:51;;;;;;;16.33;3.00;;;13.00;73.20;;;;;;5022346;28;20044;-82
2023/12/28 11:04:50;;;;;;;15.70;4.00;;;13.00;73.20;;;;;;5047071;28;20041;-82
2023/12/28 11:07:18;;;;;;;16.13;5.05;;;13.00;73.30;;;;;;5040290;28;20040;-82
2023/12/28 11:09:45;;;;;;;17.90;3.47;;;13.10;73.40;;;;;;5049654;28;20033;-83
2023/12/28 11:12:11;;;;;;;13.90;3.42;;;13.10;73.40;;;;;;5043822;28;20414;-83
2023/12/28 11:14:41;;;;;;;15.63;3.75;;;13.10;73.30;;;;;;5053159;28;20208;-86
2023/12/28 11:17:09;;;;;;;10.05;4.07;;;13.20;73.40;;;;;;5045586;28;20115;-84
2023/12/28 11:19:37;;;;;;;11.38;3.55;;;13.20;73.30;;;;;;5042741;28;20609;-84
2023/12/28 11:22:04;;;;;;;9.50;3.03;;;13.30;73.40;;;;;;5039950;28;20083;-83
2023/12/28 11:24:31;;;;;;;15.60;3.10;;;13.30;73.30;;;;;;5041645;28;20308;-83
2023/12/28 11:26:57;;;;;;;15.15;3.55;;;13.40;73.30;;;;;;5047409;28;20557;-83
2023/12/28 11:29:24;;;;;;;14.00;2.70;;;13.40;73.10;;;;;;5067546;28;20029;-84
2023/12/28 11:31:52;;;;;;;12.07;2.90;;;13.40;73.10;;;;;;5041854;28;20044;-85
2023/12/28 11:34:18;;;;;;;10.30;2.97;;;13.50;73.10;;;;;;5057187;28;20424;-85
2023/12/28 11:36:50;;;;;;;11.73;2.85;;;13.50;73.00;;;;;;5041712;28;20033;-85
2023/12/28 11:39:26;;;;;;;;;;;13.50;72.90;;;;;;5039959;28;20115;-84
2023/12/28 11:42:05;;;;;;;10.73;3.08;;;13.50;72.90;;;;;;5033009;28;20478;-85
2023/12/28 11:44:37;;;;;;;14.02;3.60;;;13.50;72.80;;;;;;5036250;28;20268;-84
2023/12/28 11:47:12;;;;;;;13.52;3.70;;;13.50;72.90;;;;;;5031977;28;20245;-84
2023/12/28 11:49:42;;;;;;;10.95;2.42;;;13.40;72.60;;;;;;5035521;28;20099;-83
2023/12/28 11:52:31;;;;;;;12.65;3.30;;;13.50;72.80;;;;;;5022115;28;20280;-83
2023/12/28 11:54:59;;;;;;;13.27;2.88;;;13.50;72.70;;;;;;5033243;28;20052;-85
2023/12/28 11:57:26;;;;;;;15.52;3.50;;;13.50;72.70;;;;;;5036804;28;20592;-83
2023/12/28 12:00:03;;;;;;;12.50;3.33;;;13.60;72.80;;;;;;5021339;28;20040;-85
2023/12/28 12:02:32;;;;;;;13.52;2.75;;;13.60;72.70;;;;;;5035441;28;20029;-84
2023/12/28 12:05:01;;;;;;;10.98;3.30;;;13.60;72.60;;;;;;5034231;28;20517;-85
2023/12/28 12:07:28;;;;;;;10.02;2.88;;;13.70;72.60;;;;;;5033075;28;20549;-86
2023/12/28 12:09:58;;;;;;;12.45;3.80;;;13.70;72.60;;;;;;5046975;28;20118;-82
2023/12/28 12:12:25;;;;;;;9.40;2.85;;;13.70;72.40;;;;;;5033345;28;20056;-83
2023/12/28 12:14:52;;;;;;;17.10;3.35;;;13.70;72.30;;;;;;5032143;28;20078;-82
2023/12/28 12:17:19;;;;;;;12.50;3.03;;;13.80;72.40;;;;;;5029775;28;20495;-83
2023/12/28 12:19:48;;;;;;;13.07;2.60;;;13.80;72.30;;;;;;5031909;28;20240;-83
2023/12/28 12:22:16;;;;;;;12.70;3.33;;;13.90;72.40;;;;;;5026908;28;20038;-84
2023/12/28 12:24:48;;;;;;;13.45;3.22;;;13.90;72.80;;;;;;5019022;28;20041;-89
2023/12/28 12:27:14;;;;;;;15.23;3.67;;;13.90;72.10;;;;;;5035166;28;20124;-84
2023/12/28 12:29:42;;;;;;;11.60;3.13;;;13.90;72.10;;;;;;5041568;28;20146;-84
2023/12/28 12:32:09;;;;;;;12.55;3.22;;;13.90;71.90;;;;;;5035971;28;20076;-87
2023/12/28 12:34:35;;;;;;;14.98;3.60;;;13.90;71.90;;;;;;5029741;28;20059;-81
2023/12/28 12:37:02;;;;;;;13.32;2.40;;;13.90;71.80;;;;;;5033503;28;20045;-81
2023/12/28 12:39:29;;;;;;;10.75;3.03;;;13.90;71.80;;;;;;5036256;28;20028;-84